Time;durP1;ratioP1;P1;durP2;ratioP2;P2;SDS_P1;SDS_P2;PMS_P1;PMS_P2;Temp;Humidity;BMP_temperature;BMP_pressure;BME280_temperature;BME280_humidity;BME280_pressure;Samples;Min_cycle;Max_cycle;Signal;HPM_P1;HPM_P2
2022/08/16 00:00:05;;;;;;;14.88;13.63;;;20.90;99.90;;;;;;4590160;19;20080;-35
2022/08/16 00:01:56;;;;;;;15.90;14.38;;;20.90;99.90;;;;;;4590362;19;20014;-38
2022/08/16 00:03:27;;;;;;;15.27;13.88;;;20.90;99.90;;;;;;4589431;19;20010;-36
2022/08/16 00:04:59;;;;;;;16.20;14.73;;;20.90;99.90;;;;;;4590385;19;20039;-37
2022/08/16 00:06:30;;;;;;;;;;;20.90;99.90;;;;;;4591999;19;20006;-34
2022/08/16 00:08:01;;;;;;;15.57;14.27;;;20.90;99.90;;;;;;4590344;19;19917;-41
2022/08/16 00:09:32;;;;;;;;;;;20.90;99.90;;;;;;4591391;19;20018;-39
2022/08/16 00:11:05;;;;;;;15.65;14.25;;;20.90;99.90;;;;;;4590449;19;19922;-33
2022/08/16 00:12:40;;;;;;;16.52;14.82;;;20.90;99.90;;;;;;4591032;19;19998;-36
2022/08/16 00:14:14;;;;;;;17.15;15.65;;;20.90;99.90;;;;;;4589143;19;20015;-38
2022/08/16 00:15:47;;;;;;;15.38;13.88;;;20.90;99.90;;;;;;4588165;19;20021;-42
2022/08/16 00:17:18;;;;;;;16.98;15.48;;;20.90;99.90;;;;;;4589399;19;20014;-35
2022/08/16 00:18:49;;;;;;;17.73;16.15;;;20.90;99.90;;;;;;4589248;19;20014;-39
2022/08/16 00:20:21;;;;;;;16.77;15.10;;;20.90;99.90;;;;;;4590100;19;20014;-39
2022/08/16 00:21:52;;;;;;;16.70;15.20;;;20.80;99.90;;;;;;4590101;19;20086;-36
2022/08/16 00:23:23;;;;;;;16.55;15.05;;;20.80;99.90;;;;;;4590875;19;19999;-37
2022/08/16 00:24:54;;;;;;;17.08;15.57;;;20.80;99.90;;;;;;4590258;19;20015;-41
2022/08/16 00:26:28;;;;;;;18.10;16.48;;;20.80;99.90;;;;;;4588939;19;20035;-39
2022/08/16 00:28:00;;;;;;;18.33;16.58;;;20.80;99.90;;;;;;4589835;19;20050;-36
2022/08/16 00:29:31;;;;;;;17.50;15.80;;;20.80;99.90;;;;;;4590139;19;20014;-38
2022/08/16 00:31:02;;;;;;;17.88;16.38;;;20.80;99.90;;;;;;4589053;19;20059;-39
2022/08/16 00:32:33;;;;;;;16.63;15.23;;;20.80;99.90;;;;;;4589498;19;20011;-38
2022/08/16 00:34:04;;;;;;;18.35;16.65;;;20.80;99.90;;;;;;4590329;19;20029;-37
2022/08/16 00:35:36;;;;;;;18.40;16.80;;;20.80;99.90;;;;;;4589536;19;20337;-41
2022/08/16 00:37:07;;;;;;;18.05;16.45;;;20.80;99.90;;;;;;4588754;19;20070;-41
2022/08/16 00:38:38;;;;;;;18.67;17.13;;;20.80;99.90;;;;;;4589679;19;20082;-35
2022/08/16 00:40:11;;;;;;;18.90;17.20;;;20.80;99.90;;;;;;4590951;19;20396;-36
2022/08/16 00:41:42;;;;;;;17.25;15.75;;;20.80;99.90;;;;;;4595080;19;20010;-37
2022/08/16 00:43:25;;;;;;;19.85;18.05;;;20.70;99.90;;;;;;4593423;19;20014;-39
2022/08/16 00:45:09;;;;;;;18.50;16.98;;;20.80;99.90;;;;;;4593464;19;20017;-40
2022/08/16 00:46:56;;;;;;;18.70;17.10;;;20.70;99.90;;;;;;4592418;19;20043;-36
2022/08/16 00:48:28;;;;;;;19.35;17.70;;;20.70;99.90;;;;;;4593681;19;19997;-35
2022/08/16 00:49:59;;;;;;;19.05;17.38;;;20.70;99.90;;;;;;4594790;19;20024;-34
2022/08/16 00:51:30;;;;;;;19.35;17.60;;;20.70;99.90;;;;;;4594210;19;20074;-36
2022/08/16 00:53:03;;;;;;;20.05;18.23;;;20.70;99.90;;;;;;4594384;19;20031;-39
2022/08/16 00:54:34;;;;;;;20.58;18.73;;;20.70;99.90;;;;;;4594414;19;20345;-37
2022/08/16 00:56:08;;;;;;;19.17;17.58;;;20.70;99.90;;;;;;4591564;19;20021;-34
2022/08/16 00:57:39;;;;;;;19.63;17.98;;;20.70;99.90;;;;;;4592970;19;20090;-38
2022/08/16 00:59:11;;;;;;;20.30;18.60;;;20.70;99.90;;;;;;4593088;19;20014;-39
2022/08/16 01:00:44;;;;;;;20.05;18.35;;;20.70;99.90;;;;;;4593103;19;20015;-40
2022/08/16 01:02:15;;;;;;;19.45;17.85;;;20.70;99.90;;;;;;4593661;19;20014;-37
2022/08/16 01:03:47;;;;;;;19.90;18.13;;;20.70;99.90;;;;;;4594098;19;20011;-44
2022/08/16 01:05:19;;;;;;;18.92;17.33;;;20.70;99.90;;;;;;4594291;19;20049;-40
2022/08/16 01:06:50;;;;;;;19.75;18.05;;;20.70;99.90;;;;;;4593442;19;20372;-35
2022/08/16 01:08:21;;;;;;;20.20;18.45;;;20.70;99.90;;;;;;4592680;19;20015;-35
2022/08/16 01:09:52;;;;;;;20.38;18.48;;;20.70;99.90;;;;;;4594005;19;20018;-42
2022/08/16 01:11:23;;;;;;;20.20;18.48;;;20.70;99.90;;;;;;4594162;19;20018;-39
2022/08/16 01:12:54;;;;;;;21.02;19.38;;;20.70;99.90;;;;;;4593606;19;20018;-35
2022/08/16 01:14:28;;;;;;;19.80;18.10;;;20.60;99.90;;;;;;4592969;19;20011;-38
2022/08/16 01:16:00;;;;;;;20.45;18.65;;;20.70;99.90;;;;;;4591383;19;20006;-40
2022/08/16 01:17:31;;;;;;;20.27;18.58;;;20.60;99.90;;;;;;4592855;19;20387;-35
2022/08/16 01:19:25;;;;;;;21.23;19.42;;;20.60;99.90;;;;;;4590989;19;20022;-35
2022/08/16 01:21:03;;;;;;;20.92;19.23;;;20.70;99.90;;;;;;4592539;19;20014;-40
2022/08/16 01:22:59;;;;;;;19.55;17.92;;;20.70;99.90;;;;;;4592346;19;20019;-40
2022/08/16 01:24:38;;;;;;;20.98;19.17;;;20.60;99.90;;;;;;4592713;19;20024;-38
2022/08/16 01:26:09;;;;;;;20.77;19.00;;;20.60;99.90;;;;;;4592552;19;20014;-39
2022/08/16 01:27:46;;;;;;;21.95;20.13;;;20.70;99.90;;;;;;4593049;19;20074;-38
2022/08/16 01:29:21;;;;;;;20.90;19.02;;;20.60;99.90;;;;;;4592515;19;20018;-36
2022/08/16 01:30:55;;;;;;;21.10;19.35;;;20.60;99.90;;;;;;4593136;19;20031;-35
2022/08/16 01:32:31;;;;;;;20.70;18.90;;;20.60;99.90;;;;;;4592409;19;20025;-39
2022/08/16 01:34:02;;;;;;;21.85;19.83;;;20.60;99.90;;;;;;4592616;19;20006;-38
2022/08/16 01:35:55;;;;;;;20.33;18.58;;;20.60;99.90;;;;;;4592123;19;20009;-39
2022/08/16 01:37:26;;;;;;;21.05;19.17;;;20.60;99.90;;;;;;4592161;19;20006;-37
2022/08/16 01:38:57;;;;;;;21.05;19.35;;;20.60;99.90;;;;;;4594338;19;20010;-35
2022/08/16 01:40:29;;;;;;;20.25;18.55;;;20.60;99.90;;;;;;4593934;19;20007;-36
2022/08/16 01:42:00;;;;;;;20.92;19.13;;;20.60;99.90;;;;;;4592464;19;20027;-36
2022/08/16 01:43:31;;;;;;;;;;;20.60;99.90;;;;;;4593718;19;20379;-37
2022/08/16 01:45:03;;;;;;;20.37;18.33;;;20.60;99.90;;;;;;4593625;19;19943;-36
2022/08/16 01:46:40;;;;;;;21.08;19.17;;;20.60;99.90;;;;;;4593708;19;20515;-39
2022/08/16 01:48:11;;;;;;;19.75;17.92;;;20.60;99.90;;;;;;4595422;19;20468;-35
2022/08/16 01:49:43;;;;;;;19.13;17.02;;;20.70;99.90;;;;;;4595007;19;20380;-35
2022/08/16 01:51:15;;;;;;;20.85;18.73;;;20.70;99.90;;;;;;4594796;19;20007;-41
2022/08/16 01:52:46;;;;;;;20.25;17.75;;;20.70;99.90;;;;;;4592579;19;20034;-38
2022/08/16 01:54:17;;;;;;;19.23;17.42;;;20.80;99.90;;;;;;4592486;19;20453;-33
2022/08/16 01:55:49;;;;;;;18.92;17.13;;;20.80;99.90;;;;;;4591655;19;20013;-37
2022/08/16 01:57:20;;;;;;;18.48;16.65;;;20.80;99.90;;;;;;4593627;19;20010;-34
2022/08/16 01:58:56;;;;;;;18.08;16.48;;;20.80;99.90;;;;;;4592429;19;20007;-36
2022/08/16 02:00:27;;;;;;;18.80;16.70;;;20.90;99.90;;;;;;4592577;19;20015;-32
2022/08/16 02:01:59;;;;;;;18.38;16.50;;;20.90;99.90;;;;;;4593228;19;20022;-36
2022/08/16 02:03:30;;;;;;;18.25;16.58;;;20.90;99.90;;;;;;4592049;19;20329;-38
2022/08/16 02:05:01;;;;;;;18.00;16.30;;;20.90;99.90;;;;;;4593068;19;20003;-35
2022/08/16 02:06:33;;;;;;;18.92;17.02;;;20.90;99.90;;;;;;4591481;19;20388;-40
2022/08/16 02:08:04;;;;;;;19.48;17.35;;;20.90;99.90;;;;;;4592749;19;20015;-37
2022/08/16 02:09:36;;;;;;;17.38;15.57;;;21.00;99.90;;;;;;4592059;19;20062;-42
2022/08/16 02:11:07;;;;;;;17.90;16.30;;;21.00;99.90;;;;;;4592942;19;20007;-41
2022/08/16 02:12:38;;;;;;;18.30;16.60;;;21.00;99.90;;;;;;4591690;19;20506;-37
2022/08/16 02:14:10;;;;;;;17.42;15.77;;;21.00;99.90;;;;;;4592375;19;20354;-34
2022/08/16 02:15:41;;;;;;;18.52;16.75;;;21.00;99.90;;;;;;4592110;19;20006;-36
2022/08/16 02:17:12;;;;;;;19.45;17.65;;;21.00;99.90;;;;;;4591508;19;20002;-41
2022/08/16 02:18:44;;;;;;;20.02;17.90;;;21.00;99.90;;;;;;4591025;19;20337;-34
2022/08/16 02:20:15;;;;;;;19.30;17.38;;;21.10;99.90;;;;;;4591424;19;20040;-35
2022/08/16 02:21:49;;;;;;;18.35;16.58;;;21.10;99.90;;;;;;4591465;19;20002;-34
2022/08/16 02:23:23;;;;;;;19.92;16.75;;;21.00;99.90;;;;;;4591175;19;20015;-37
2022/08/16 02:24:54;;;;;;;20.10;17.77;;;21.10;99.90;;;;;;4591382;19;20119;-35
2022/08/16 02:26:25;;;;;;;19.75;17.98;;;21.00;99.90;;;;;;4592518;19;20356;-39
2022/08/16 02:27:57;;;;;;;19.65;17.83;;;21.10;99.90;;;;;;4593096;19;20008;-34
2022/08/16 02:29:29;;;;;;;19.52;17.63;;;21.00;99.90;;;;;;4592287;19;20031;-34
2022/08/16 02:31:03;;;;;;;19.85;17.95;;;21.00;99.90;;;;;;4591257;19;20006;-34
2022/08/16 02:32:34;;;;;;;19.98;18.02;;;21.00;99.90;;;;;;4592063;19;20003;-34
2022/08/16 02:34:05;;;;;;;11.15;9.98;;;21.00;99.90;;;;;;4592976;19;20010;-40
2022/08/16 02:35:36;;;;;;;11.80;10.70;;;21.00;99.90;;;;;;4591517;19;20024;-40
2022/08/16 02:37:07;;;;;;;11.98;10.88;;;21.10;99.90;;;;;;4592613;19;20011;-37
2022/08/16 02:38:39;;;;;;;12.02;10.75;;;21.30;99.90;;;;;;4592551;19;20003;-38
2022/08/16 02:40:11;;;;;;;10.90;9.90;;;21.40;99.90;;;;;;4592363;19;20035;-34
2022/08/16 02:41:43;;;;;;;12.73;11.52;;;21.50;99.90;;;;;;4591060;19;20033;-37
2022/08/16 02:43:15;;;;;;;12.70;11.20;;;21.60;99.90;;;;;;4591443;19;20010;-34
2022/08/16 02:44:46;;;;;;;13.63;12.43;;;21.70;99.90;;;;;;4592435;19;20022;-34
2022/08/16 02:46:17;;;;;;;14.02;12.55;;;21.80;99.90;;;;;;4590760;19;20353;-42
2022/08/16 02:47:48;;;;;;;12.80;11.60;;;21.90;99.90;;;;;;4591907;19;20042;-35
2022/08/16 02:49:19;;;;;;;11.38;10.35;;;22.00;99.90;;;;;;4592453;19;20066;-35
2022/08/16 02:50:50;;;;;;;11.57;10.48;;;22.00;99.90;;;;;;4590944;19;20014;-42
2022/08/16 02:52:22;;;;;;;10.63;9.73;;;22.10;99.90;;;;;;4591468;19;20011;-35
2022/08/16 02:53:53;;;;;;;11.95;10.85;;;22.10;99.90;;;;;;4590963;19;20038;-39
2022/08/16 02:55:25;;;;;;;10.85;9.85;;;22.10;99.90;;;;;;4591100;19;20002;-35
2022/08/16 02:56:56;;;;;;;11.15;10.13;;;22.20;99.90;;;;;;4592359;19;20371;-36
2022/08/16 02:58:27;;;;;;;11.93;10.73;;;22.20;99.90;;;;;;4591832;19;20015;-36
2022/08/16 02:59:59;;;;;;;11.63;10.52;;;22.30;99.90;;;;;;4590922;19;20082;-38
2022/08/16 03:01:31;;;;;;;12.38;11.15;;;22.30;99.90;;;;;;4591406;19;20041;-36
2022/08/16 03:03:02;;;;;;;11.93;10.68;;;22.30;99.90;;;;;;4589398;19;20340;-37
2022/08/16 03:04:33;;;;;;;11.25;10.18;;;22.40;99.90;;;;;;4590785;19;20014;-40
2022/08/16 03:06:04;;;;;;;10.88;9.88;;;22.40;99.90;;;;;;4591399;19;20540;-33
2022/08/16 03:07:36;;;;;;;11.40;10.30;;;22.40;99.90;;;;;;4592562;19;20027;-34
2022/08/16 03:09:06;;;;;;;11.02;10.02;;;22.40;99.90;;;;;;4591552;19;20021;-35
2022/08/16 03:10:37;;;;;;;12.02;10.98;;;22.50;99.90;;;;;;4591329;19;20014;-41
2022/08/16 03:12:09;;;;;;;11.73;10.52;;;22.50;99.90;;;;;;4592008;19;20085;-35
2022/08/16 03:13:40;;;;;;;12.18;11.10;;;22.50;99.90;;;;;;4592145;19;20002;-36
2022/08/16 03:15:12;;;;;;;12.52;11.30;;;22.50;99.90;;;;;;4591097;19;20069;-35
2022/08/16 03:16:43;;;;;;;12.77;11.65;;;22.50;99.90;;;;;;4590539;19;20014;-36
2022/08/16 03:18:15;;;;;;;11.77;10.60;;;22.50;99.90;;;;;;4590132;19;20092;-41
2022/08/16 03:19:46;;;;;;;12.20;11.00;;;22.60;99.90;;;;;;4591731;19;20069;-36
2022/08/16 03:21:17;;;;;;;11.88;10.73;;;22.60;99.90;;;;;;4591512;19;20027;-40
2022/08/16 03:22:48;;;;;;;11.88;10.60;;;22.60;99.90;;;;;;4591177;19;20010;-40
2022/08/16 03:24:19;;;;;;;12.75;11.05;;;22.60;99.90;;;;;;4591684;19;20387;-37
2022/08/16 03:25:50;;;;;;;13.27;11.98;;;22.60;99.90;;;;;;4591210;19;20014;-37
2022/08/16 03:27:21;;;;;;;13.15;11.93;;;22.60;99.90;;;;;;4590101;19;20023;-40
2022/08/16 03:28:52;;;;;;;12.13;11.02;;;22.70;99.90;;;;;;4591117;19;20015;-38
2022/08/16 03:30:26;;;;;;;12.15;10.98;;;22.70;99.90;;;;;;4591365;19;20086;-34
2022/08/16 03:31:58;;;;;;;12.98;11.77;;;22.70;99.90;;;;;;4590002;19;20017;-34
2022/08/16 03:33:29;;;;;;;13.80;12.40;;;22.70;99.90;;;;;;4590801;19;20034;-36
2022/08/16 03:35:00;;;;;;;12.65;11.35;;;22.70;99.90;;;;;;4591281;19;20014;-38
2022/08/16 03:36:31;;;;;;;12.27;11.07;;;22.70;99.90;;;;;;4591644;19;20084;-37
2022/08/16 03:38:04;;;;;;;13.43;12.23;;;22.70;99.90;;;;;;4591057;19;20010;-40
2022/08/16 03:39:35;;;;;;;12.77;11.40;;;22.70;99.90;;;;;;4589722;19;20010;-37
2022/08/16 03:41:06;;;;;;;14.88;12.20;;;22.70;99.90;;;;;;4591300;19;20337;-35
2022/08/16 03:42:37;;;;;;;;;;;22.70;99.90;;;;;;4590473;19;20018;-36
2022/08/16 03:44:08;;;;;;;15.40;12.95;;;22.70;99.90;;;;;;4590430;19;20334;-37
2022/08/16 03:45:39;;;;;;;12.65;11.35;;;22.80;99.90;;;;;;4591333;19;20011;-37
2022/08/16 03:47:11;;;;;;;13.38;12.07;;;22.80;99.90;;;;;;4591439;19;19999;-38
2022/08/16 03:48:42;;;;;;;12.85;11.75;;;22.80;99.90;;;;;;4588010;19;20023;-39
2022/08/16 03:50:13;;;;;;;13.73;12.40;;;22.80;99.90;;;;;;4589962;19;20022;-34
2022/08/16 03:51:44;;;;;;;13.65;12.25;;;22.80;99.90;;;;;;4590310;19;20007;-45
2022/08/16 03:53:15;;;;;;;13.68;12.23;;;22.80;99.90;;;;;;4589835;19;19999;-40
2022/08/16 03:54:47;;;;;;;12.88;11.60;;;22.80;99.90;;;;;;4590432;19;20007;-39
2022/08/16 03:56:18;;;;;;;13.43;12.07;;;22.80;99.90;;;;;;4589629;19;20536;-36
2022/08/16 03:57:52;;;;;;;12.88;11.57;;;22.80;99.90;;;;;;4591190;19;20006;-36
2022/08/16 03:59:23;;;;;;;12.65;11.35;;;22.80;99.90;;;;;;4591054;19;20027;-39
2022/08/16 04:00:54;;;;;;;13.85;12.45;;;22.80;99.90;;;;;;4590561;19;20410;-42
2022/08/16 04:02:26;;;;;;;13.50;12.20;;;22.80;99.90;;;;;;4590988;19;20014;-38
2022/08/16 04:03:57;;;;;;;14.32;12.82;;;22.80;99.90;;;;;;4591201;19;20010;-37
2022/08/16 04:05:28;;;;;;;13.85;12.40;;;22.80;99.90;;;;;;4590362;19;20066;-36
2022/08/16 04:07:00;;;;;;;14.10;12.80;;;22.90;99.90;;;;;;4590738;19;20015;-37
2022/08/16 04:08:31;;;;;;;14.20;12.80;;;22.90;99.90;;;;;;4590901;19;20036;-34
2022/08/16 04:10:04;;;;;;;14.15;12.75;;;22.90;99.90;;;;;;4590590;19;20014;-36
2022/08/16 04:11:35;;;;;;;13.23;11.93;;;22.90;99.90;;;;;;4589289;19;20011;-38
2022/08/16 04:13:06;;;;;;;13.82;12.50;;;22.90;99.90;;;;;;4590038;19;20014;-37
2022/08/16 04:14:37;;;;;;;13.90;12.50;;;22.90;99.90;;;;;;4590208;19;20006;-35
2022/08/16 04:16:10;;;;;;;13.63;12.40;;;22.90;99.90;;;;;;4590137;19;20018;-37
2022/08/16 04:17:41;;;;;;;13.75;12.35;;;22.90;99.90;;;;;;4589616;19;20014;-33
2022/08/16 04:19:12;;;;;;;13.82;12.50;;;22.90;99.90;;;;;;4589443;19;20080;-36
2022/08/16 04:20:43;;;;;;;13.25;11.98;;;22.90;99.90;;;;;;4590656;19;20074;-37
2022/08/16 04:22:15;;;;;;;14.23;12.75;;;22.90;99.90;;;;;;4590752;19;20452;-35
2022/08/16 04:23:46;;;;;;;13.38;11.98;;;22.90;99.90;;;;;;4588926;19;20565;-38
2022/08/16 04:25:17;;;;;;;14.50;13.07;;;22.90;99.90;;;;;;4589932;19;20010;-32
2022/08/16 04:26:48;;;;;;;13.20;11.90;;;23.00;99.90;;;;;;4590411;19;20005;-36
2022/08/16 04:28:19;;;;;;;15.27;12.02;;;22.90;99.90;;;;;;4590003;19;20007;-39
2022/08/16 04:29:50;;;;;;;13.40;12.02;;;22.90;99.90;;;;;;4590092;19;20018;-34
2022/08/16 04:31:22;;;;;;;;;;;23.00;99.90;;;;;;4590113;19;20042;-34
2022/08/16 04:32:53;;;;;;;13.40;12.10;;;22.90;99.90;;;;;;4590197;19;19910;-37
2022/08/16 04:34:27;;;;;;;15.27;13.77;;;23.00;99.90;;;;;;4589855;19;20035;-44
2022/08/16 04:35:58;;;;;;;12.70;11.57;;;22.90;99.90;;;;;;4589335;19;20010;-37
2022/08/16 04:37:29;;;;;;;;;;;23.00;99.90;;;;;;4590968;19;20352;-38
2022/08/16 04:39:00;;;;;;;12.70;11.52;;;23.00;99.90;;;;;;4590152;19;19927;-37
2022/08/16 04:40:31;;;;;;;12.98;11.73;;;23.00;99.90;;;;;;4589087;19;20045;-39
2022/08/16 04:42:03;;;;;;;13.52;12.23;;;23.00;99.90;;;;;;4589590;19;20397;-37
2022/08/16 04:43:37;;;;;;;14.25;12.73;;;23.00;99.90;;;;;;4589194;19;20010;-34
2022/08/16 04:45:09;;;;;;;13.68;12.48;;;23.00;99.90;;;;;;4588212;19;20006;-43
2022/08/16 04:46:40;;;;;;;12.57;11.38;;;23.10;99.90;;;;;;4590950;19;20017;-39
2022/08/16 04:48:11;;;;;;;12.85;11.60;;;23.10;99.90;;;;;;4591911;19;20011;-42
2022/08/16 04:49:43;;;;;;;13.77;12.48;;;23.10;99.90;;;;;;4589456;19;20006;-38
2022/08/16 04:51:14;;;;;;;13.88;12.57;;;23.10;99.90;;;;;;4588611;19;20017;-40
2022/08/16 04:52:46;;;;;;;13.10;11.90;;;23.10;99.90;;;;;;4589048;19;20011;-38
2022/08/16 04:54:17;;;;;;;13.30;12.00;;;23.10;99.90;;;;;;4588005;19;20010;-35
2022/08/16 04:55:48;;;;;;;14.70;12.93;;;23.10;99.90;;;;;;4587874;19;20014;-37
2022/08/16 04:57:19;;;;;;;13.15;11.98;;;23.10;99.90;;;;;;4588857;19;20014;-40
2022/08/16 04:58:50;;;;;;;17.20;15.48;;;23.00;99.90;;;;;;4588933;19;20018;-39
2022/08/16 05:00:23;;;;;;;18.38;16.48;;;22.60;99.90;;;;;;4587831;19;20074;-38
2022/08/16 05:01:55;;;;;;;19.23;17.40;;;22.20;99.90;;;;;;4587807;19;20017;-38
2022/08/16 05:03:26;;;;;;;20.55;18.45;;;22.00;99.90;;;;;;4588447;19;20363;-37
2022/08/16 05:04:58;;;;;;;20.42;17.73;;;21.80;99.90;;;;;;4590066;19;20011;-40
2022/08/16 05:06:29;;;;;;;20.27;17.55;;;21.70;99.90;;;;;;4589751;19;20035;-42
2022/08/16 05:08:00;;;;;;;19.92;17.80;;;21.60;99.90;;;;;;4588293;19;20508;-39
2022/08/16 05:09:31;;;;;;;20.00;18.05;;;21.50;99.90;;;;;;4588946;19;20013;-41
2022/08/16 05:11:04;;;;;;;20.88;18.88;;;21.50;99.90;;;;;;4588733;19;20011;-42
2022/08/16 05:12:35;;;;;;;21.90;19.17;;;21.40;99.90;;;;;;4588810;19;20533;-36
2022/08/16 05:14:06;;;;;;;;;;;21.40;99.90;;;;;;4590123;19;20074;-35
2022/08/16 05:15:38;;;;;;;21.38;19.33;;;21.40;99.90;;;;;;4588861;19;19925;-35
2022/08/16 05:17:09;;;;;;;21.27;19.08;;;21.40;99.90;;;;;;4589407;19;20518;-37
2022/08/16 05:18:40;;;;;;;21.63;19.42;;;21.30;99.90;;;;;;4588286;19;20027;-39
2022/08/16 05:20:11;;;;;;;22.75;20.33;;;21.30;99.90;;;;;;4589004;19;20010;-42
2022/08/16 05:21:42;;;;;;;23.70;21.42;;;21.30;99.90;;;;;;4589495;19;20480;-37
2022/08/16 05:23:15;;;;;;;22.73;20.52;;;21.40;99.90;;;;;;4589282;19;20021;-41
2022/08/16 05:24:46;;;;;;;23.88;21.30;;;21.30;99.90;;;;;;4589434;19;20010;-35
2022/08/16 05:26:18;;;;;;;23.38;20.98;;;21.40;99.90;;;;;;4590418;19;20469;-43
2022/08/16 05:27:50;;;;;;;;;;;21.30;99.90;;;;;;4589331;19;20015;-40
2022/08/16 05:29:21;;;;;;;22.70;20.33;;;21.30;99.90;;;;;;4593727;19;19914;-37
2022/08/16 05:30:52;;;;;;;24.45;21.50;;;21.30;99.90;;;;;;4593686;19;20032;-43
2022/08/16 05:32:23;;;;;;;23.60;21.13;;;21.30;99.90;;;;;;4593480;19;20484;-34
2022/08/16 05:33:54;;;;;;;23.35;20.95;;;21.30;99.90;;;;;;4593648;19;20033;-41
2022/08/16 05:35:25;;;;;;;24.10;21.50;;;21.30;99.90;;;;;;4592256;19;20064;-36
2022/08/16 05:36:56;;;;;;;24.10;21.70;;;21.30;99.90;;;;;;4594176;19;20014;-39
2022/08/16 05:38:28;;;;;;;23.58;21.17;;;21.20;99.90;;;;;;4593332;19;20015;-34
2022/08/16 05:39:59;;;;;;;22.17;19.85;;;21.30;99.90;;;;;;4593792;19;20043;-42
2022/08/16 05:41:30;;;;;;;24.48;21.95;;;21.30;99.90;;;;;;4593081;19;20015;-39
2022/08/16 05:43:01;;;;;;;27.63;21.83;;;21.40;99.90;;;;;;4592414;19;20018;-39
2022/08/16 05:44:32;;;;;;;24.08;21.73;;;21.40;99.90;;;;;;4593799;19;20070;-43
2022/08/16 05:46:03;;;;;;;25.20;22.55;;;21.40;99.90;;;;;;4593206;19;20022;-40
2022/08/16 05:47:34;;;;;;;24.58;21.20;;;21.40;99.90;;;;;;4592715;19;20036;-39
2022/08/16 05:49:05;;;;;;;23.98;21.48;;;21.40;99.90;;;;;;4592247;19;20022;-44
2022/08/16 05:50:37;;;;;;;23.55;21.00;;;21.40;99.90;;;;;;4593181;19;20014;-38
2022/08/16 05:52:08;;;;;;;24.42;20.83;;;21.50;99.90;;;;;;4591859;19;20010;-37
2022/08/16 05:53:39;;;;;;;22.63;19.77;;;21.50;99.90;;;;;;4591375;19;20074;-37
2022/08/16 05:55:10;;;;;;;22.80;19.48;;;22.00;99.90;;;;;;4591704;19;20010;-41
2022/08/16 05:56:44;;;;;;;20.70;18.50;;;22.40;99.90;;;;;;4591550;19;20082;-38
2022/08/16 05:58:16;;;;;;;21.75;18.15;;;22.80;99.90;;;;;;4592897;19;20349;-37
2022/08/16 05:59:47;;;;;;;;;;;23.20;99.90;;;;;;4591650;19;20007;-37
2022/08/16 06:01:18;;;;;;;19.02;17.13;;;23.40;99.90;;;;;;4594224;19;19911;-36
2022/08/16 06:02:49;;;;;;;18.80;16.90;;;23.60;99.90;;;;;;4592250;19;20026;-38
2022/08/16 06:04:21;;;;;;;17.92;16.02;;;23.70;99.90;;;;;;4593118;19;20053;-39
2022/08/16 06:05:52;;;;;;;20.45;17.45;;;23.80;99.90;;;;;;4593013;19;20476;-40
2022/08/16 06:07:23;;;;;;;16.10;14.50;;;23.90;99.90;;;;;;4593068;19;20015;-37
2022/08/16 06:08:54;;;;;;;16.13;14.52;;;24.00;99.90;;;;;;4592920;19;20505;-38
2022/08/16 06:10:25;;;;;;;17.40;15.65;;;24.10;99.90;;;;;;4592620;19;20026;-40
2022/08/16 06:11:56;;;;;;;18.50;16.75;;;24.10;99.90;;;;;;4591885;19;20007;-39
2022/08/16 06:13:27;;;;;;;16.33;14.52;;;24.20;99.90;;;;;;4592448;19;20015;-42
2022/08/16 06:15:00;;;;;;;;;;;24.20;99.90;;;;;;4594405;19;20003;-37
2022/08/16 06:16:31;;;;;;;16.90;15.20;;;24.20;99.90;;;;;;4592647;19;19911;-38
2022/08/16 06:18:02;;;;;;;17.52;15.73;;;24.30;99.90;;;;;;4592168;19;20039;-41
2022/08/16 06:19:33;;;;;;;12.15;11.13;;;24.30;99.90;;;;;;4593035;19;20007;-37
2022/08/16 06:21:05;;;;;;;18.70;16.98;;;23.90;99.90;;;;;;4593690;19;20010;-37
2022/08/16 06:22:37;;;;;;;24.80;20.65;;;23.30;99.90;;;;;;4592666;19;20334;-45
2022/08/16 06:24:08;;;;;;;21.48;19.42;;;22.80;99.90;;;;;;4591977;19;20022;-39
2022/08/16 06:25:39;;;;;;;;;;;22.40;99.90;;;;;;4593429;19;20006;-35
2022/08/16 06:27:11;;;;;;;20.67;18.67;;;22.20;99.90;;;;;;4592515;19;20330;-35
2022/08/16 06:28:42;;;;;;;23.65;21.25;;;22.00;99.90;;;;;;4592631;19;20024;-39
2022/08/16 06:30:13;;;;;;;22.83;20.42;;;21.80;99.90;;;;;;4592885;19;20129;-43
2022/08/16 06:31:44;;;;;;;22.92;20.63;;;21.80;99.90;;;;;;4592700;19;20524;-37
2022/08/16 06:33:16;;;;;;;23.55;21.15;;;21.80;99.90;;;;;;4592180;19;20536;-35
2022/08/16 06:34:47;;;;;;;;;;;21.70;99.90;;;;;;4592086;19;20066;-37
2022/08/16 06:36:18;;;;;;;24.83;20.97;;;21.60;99.90;;;;;;4591031;19;20311;-38
2022/08/16 06:37:49;;;;;;;24.60;22.13;;;21.60;99.90;;;;;;4592745;19;20452;-38
2022/08/16 06:39:21;;;;;;;23.45;20.98;;;21.50;99.90;;;;;;4592224;19;20026;-32
2022/08/16 06:40:52;;;;;;;23.67;21.45;;;21.50;99.90;;;;;;4592398;19;20015;-37
2022/08/16 06:42:23;;;;;;;25.20;22.60;;;21.50;99.90;;;;;;4591017;19;20035;-35
2022/08/16 06:43:55;;;;;;;25.13;22.50;;;21.40;99.90;;;;;;4591106;19;20464;-35
2022/08/16 06:45:26;;;;;;;23.70;21.30;;;21.50;99.90;;;;;;4591051;19;20010;-37
2022/08/16 06:46:59;;;;;;;24.75;21.88;;;21.40;99.90;;;;;;4590627;19;20577;-37
2022/08/16 06:48:31;;;;;;;25.48;22.98;;;21.40;99.90;;;;;;4591600;19;19998;-37
2022/08/16 06:50:03;;;;;;;24.50;22.08;;;21.40;99.90;;;;;;4591266;19;20011;-38
2022/08/16 06:51:35;;;;;;;23.35;21.25;;;21.40;99.90;;;;;;4590715;19;20370;-34
2022/08/16 06:53:06;;;;;;;;;;;21.40;99.90;;;;;;4592271;19;19999;-36
2022/08/16 06:54:38;;;;;;;25.90;20.60;;;21.50;99.90;;;;;;4591796;19;20337;-41
2022/08/16 06:56:09;;;;;;;21.20;19.15;;;21.50;99.90;;;;;;4590553;19;20017;-43
2022/08/16 06:57:41;;;;;;;22.02;19.80;;;21.50;99.90;;;;;;4591939;19;20044;-39
2022/08/16 06:59:12;;;;;;;21.58;19.50;;;21.50;99.90;;;;;;4591413;19;20010;-32
2022/08/16 07:00:43;;;;;;;21.48;19.38;;;21.60;99.90;;;;;;4591826;19;20081;-41
2022/08/16 07:02:14;;;;;;;21.50;19.40;;;21.60;99.90;;;;;;4591423;19;20341;-41
2022/08/16 07:03:45;;;;;;;22.02;19.50;;;21.60;99.90;;;;;;4590756;19;20027;-31
2022/08/16 07:05:16;;;;;;;23.25;20.95;;;21.50;99.90;;;;;;4590451;19;20002;-40
2022/08/16 07:06:48;;;;;;;22.00;19.95;;;21.50;99.90;;;;;;4591276;19;20017;-38
2022/08/16 07:08:19;;;;;;;21.58;19.58;;;21.50;99.90;;;;;;4591693;19;20554;-35
2022/08/16 07:09:50;;;;;;;24.75;22.45;;;21.40;99.90;;;;;;4589972;19;20031;-35
2022/08/16 07:11:21;;;;;;;24.17;21.88;;;21.20;99.90;;;;;;4591249;19;20003;-37
2022/08/16 07:12:52;;;;;;;27.05;23.60;;;21.10;99.90;;;;;;4591414;19;20350;-34
2022/08/16 07:14:23;;;;;;;27.35;24.67;;;21.00;99.90;;;;;;4591106;19;20023;-42
2022/08/16 07:15:55;;;;;;;28.05;25.17;;;20.90;99.90;;;;;;4590759;19;20023;-38
2022/08/16 07:17:26;;;;;;;27.90;25.25;;;20.90;99.90;;;;;;4590009;19;20021;-33
2022/08/16 07:18:58;;;;;;;27.67;24.88;;;20.80;99.90;;;;;;4589154;19;20023;-40
2022/08/16 07:20:29;;;;;;;28.90;25.92;;;20.80;99.90;;;;;;4591427;19;20042;-40
2022/08/16 07:22:01;;;;;;;27.75;24.85;;;20.80;99.90;;;;;;4591096;19;20017;-38
2022/08/16 07:23:32;;;;;;;27.83;25.00;;;20.80;99.90;;;;;;4591257;19;20010;-34
2022/08/16 07:25:05;;;;;;;;;;;20.80;99.90;;;;;;4592241;19;20011;-39
2022/08/16 07:26:35;;;;;;;;;;;20.80;99.90;;;;;;4591989;19;19915;-35
2022/08/16 07:28:07;;;;;;;33.08;30.10;;;20.70;99.90;;;;;;4590838;19;20239;-36
2022/08/16 07:29:38;;;;;;;29.40;26.60;;;20.80;99.90;;;;;;4590923;19;20025;-36
2022/08/16 07:31:09;;;;;;;25.90;23.65;;;21.10;99.90;;;;;;4590699;19;20010;-34
2022/08/16 07:32:40;;;;;;;25.73;23.63;;;21.20;99.90;;;;;;4590741;19;20364;-35
2022/08/16 07:34:15;;;;;;;25.13;23.02;;;21.40;99.90;;;;;;4590937;19;20029;-36
2022/08/16 07:35:46;;;;;;;25.10;22.92;;;21.50;99.90;;;;;;4590200;19;20014;-33
2022/08/16 07:37:17;;;;;;;26.10;23.85;;;21.60;99.90;;;;;;4590620;19;20066;-36
2022/08/16 07:38:49;;;;;;;24.17;22.17;;;21.60;99.90;;;;;;4590519;19;20468;-35
2022/08/16 07:40:20;;;;;;;25.85;23.67;;;21.70;99.90;;;;;;4591477;19;20039;-37
2022/08/16 07:41:51;;;;;;;24.05;22.05;;;21.80;99.90;;;;;;4590511;19;20492;-40
2022/08/16 07:43:23;;;;;;;22.85;20.92;;;21.80;99.90;;;;;;4589709;19;20007;-37
2022/08/16 07:44:56;;;;;;;25.05;22.83;;;21.90;99.90;;;;;;4589552;19;19999;-38
2022/08/16 07:46:28;;;;;;;23.88;21.85;;;21.90;99.90;;;;;;4590063;19;20045;-39
2022/08/16 07:47:59;;;;;;;22.27;20.40;;;21.90;99.90;;;;;;4590642;19;20015;-42